Time;durP1;ratioP1;P1;durP2;ratioP2;P2;SDS_P1;SDS_P2;PMS_P1;PMS_P2;Temp;Humidity;BMP_temperature;BMP_pressure;BME280_temperature;BME280_humidity;BME280_pressure;Samples;Min_cycle;Max_cycle;Signal;HPM_P1;HPM_P2
2021/12/22 00:01:11;;;;;;;6.50;5.90;;;0.20;99.90;;;;;;5002575;28;20294;-79
2021/12/22 00:03:39;;;;;;;6.10;5.65;;;0.20;99.90;;;;;;5002869;28;20255;-76
2021/12/22 00:06:06;;;;;;;5.63;5.22;;;0.10;99.90;;;;;;5002696;28;20223;-77
2021/12/22 00:08:34;;;;;;;6.50;5.97;;;0.10;99.90;;;;;;5005213;28;20229;-79
2021/12/22 00:11:03;;;;;;;6.72;6.13;;;0.00;99.90;;;;;;5008149;28;20224;-77
2021/12/22 00:13:30;;;;;;;6.65;6.10;;;0.10;99.90;;;;;;5003809;28;20286;-79
2021/12/22 00:15:57;;;;;;;6.60;6.00;;;0.10;99.90;;;;;;5000228;28;20300;-77
2021/12/22 00:18:24;;;;;;;6.72;6.13;;;0.10;99.90;;;;;;5003958;28;20574;-78
2021/12/22 00:20:52;;;;;;;6.30;5.88;;;0.10;99.90;;;;;;5004641;28;20586;-76
2021/12/22 00:23:19;;;;;;;6.07;5.43;;;0.10;99.90;;;;;;5009698;28;20224;-79
2021/12/22 00:25:46;;;;;;;5.95;5.43;;;0.10;99.90;;;;;;4997489;28;20232;-77
2021/12/22 00:28:14;;;;;;;5.90;5.45;;;0.10;99.90;;;;;;5002465;28;20227;-79
2021/12/22 00:30:42;;;;;;;5.70;5.28;;;0.10;99.90;;;;;;5006716;28;20228;-78
2021/12/22 00:33:11;;;;;;;5.78;5.38;;;0.10;99.90;;;;;;5007656;28;20224;-78
2021/12/22 00:35:41;;;;;;;6.43;5.93;;;0.10;99.90;;;;;;5007801;28;20315;-78
2021/12/22 00:38:10;;;;;;;6.28;5.68;;;0.10;99.90;;;;;;5008085;28;20247;-79
2021/12/22 00:40:38;;;;;;;5.70;5.30;;;0.10;99.90;;;;;;5008743;28;20265;-79
2021/12/22 00:43:06;;;;;;;5.95;5.55;;;0.10;99.90;;;;;;5025549;23;20223;-73
2021/12/22 00:45:35;;;;;;;5.65;5.25;;;0.10;99.90;;;;;;5012159;28;20226;-72
2021/12/22 00:48:04;;;;;;;5.95;5.45;;;0.10;99.90;;;;;;5021352;28;20242;-73
2021/12/22 00:50:31;;;;;;;6.72;6.13;;;0.10;99.90;;;;;;5018574;28;20277;-72
2021/12/22 00:52:58;;;;;;;5.95;5.55;;;0.10;99.90;;;;;;5021374;28;20223;-73
2021/12/22 00:55:26;;;;;;;5.68;5.28;;;0.10;99.90;;;;;;5021005;28;20223;-73
2021/12/22 00:57:53;;;;;;;6.18;5.68;;;0.00;99.90;;;;;;4987255;28;20245;-73
2021/12/22 01:00:23;;;;;;;5.85;5.35;;;-0.10;99.90;;;;;;5011076;28;20219;-72
2021/12/22 01:02:53;;;;;;;6.80;6.22;;;-0.10;99.90;;;;;;5017835;28;20865;-73
2021/12/22 01:05:20;;;;;;;5.32;4.93;;;-0.10;99.90;;;;;;5018960;28;20597;-72
2021/12/22 01:07:49;;;;;;;5.85;5.35;;;-0.20;99.90;;;;;;5018139;28;20277;-73
2021/12/22 01:10:18;;;;;;;6.40;5.90;;;-0.20;99.90;;;;;;5020953;28;21457;-74
2021/12/22 01:12:45;;;;;;;6.22;5.72;;;-0.20;99.90;;;;;;5018178;28;20235;-73
2021/12/22 01:15:13;;;;;;;6.32;5.72;;;-0.20;99.90;;;;;;5020199;28;20218;-73
2021/12/22 01:17:43;;;;;;;6.05;5.55;;;-0.10;99.90;;;;;;5017166;28;20638;-73
2021/12/22 01:20:20;;;;;;;6.32;5.82;;;-0.10;99.90;;;;;;5018155;28;20228;-73
2021/12/22 01:22:49;;;;;;;6.50;5.90;;;-0.10;99.90;;;;;;5017379;28;20770;-73
2021/12/22 01:25:19;;;;;;;5.78;5.30;;;-0.10;99.90;;;;;;5018530;28;20227;-73
2021/12/22 01:27:47;;;;;;;6.03;5.53;;;-0.10;99.90;;;;;;5032948;28;20227;-73
2021/12/22 01:30:15;;;;;;;6.75;6.13;;;-0.10;99.90;;;;;;5021882;28;20737;-72
2021/12/22 01:32:44;;;;;;;6.10;5.60;;;-0.10;99.90;;;;;;5017129;28;20648;-72
2021/12/22 01:35:16;;;;;;;5.72;5.32;;;0.00;99.90;;;;;;5021546;28;20231;-73
2021/12/22 01:37:43;;;;;;;6.30;5.80;;;0.00;99.90;;;;;;5017633;28;20219;-73
2021/12/22 01:40:12;;;;;;;6.97;6.45;;;0.00;99.90;;;;;;5019296;28;20219;-71
2021/12/22 01:42:40;;;;;;;6.43;5.93;;;-0.10;99.90;;;;;;5018153;28;20235;-72
2021/12/22 01:45:27;;;;;;;5.78;5.35;;;-0.10;99.90;;;;;;5016512;28;20608;-72
2021/12/22 01:50:45;;;;;;;6.43;5.82;;;-0.20;99.90;;;;;;5016168;28;20599;-73
2021/12/22 01:53:36;;;;;;;6.28;5.82;;;-0.20;99.90;;;;;;5017905;28;20791;-73
2021/12/22 01:56:13;;;;;;;6.05;5.60;;;-0.20;99.90;;;;;;5022245;28;20220;-73
2021/12/22 01:58:44;;;;;;;6.88;6.35;;;-0.20;99.90;;;;;;5023875;28;20333;-73
2021/12/22 02:01:12;;;;;;;6.93;6.32;;;-0.20;99.90;;;;;;5023063;28;20231;-73
2021/12/22 02:03:40;;;;;;;6.57;6.07;;;-0.20;99.90;;;;;;5019989;28;20232;-74
2021/12/22 02:06:10;;;;;;;6.40;5.90;;;-0.20;99.90;;;;;;5022879;28;20361;-72
2021/12/22 02:08:37;;;;;;;6.97;6.38;;;-0.30;99.90;;;;;;5019242;28;20234;-73
2021/12/22 02:11:05;;;;;;;6.22;5.72;;;-0.30;99.90;;;;;;5026194;28;20630;-73
2021/12/22 02:13:36;;;;;;;6.00;5.43;;;-0.30;99.90;;;;;;5019433;28;20228;-72
2021/12/22 02:16:08;;;;;;;5.97;5.57;;;-0.30;99.90;;;;;;5021362;28;20224;-72
2021/12/22 02:18:35;;;;;;;6.53;6.03;;;-0.30;99.90;;;;;;5021312;28;20219;-72
2021/12/22 02:21:05;;;;;;;5.97;5.47;;;-0.30;99.90;;;;;;5035119;28;21610;-72
2021/12/22 02:23:33;;;;;;;7.10;6.50;;;-0.30;99.90;;;;;;5023290;28;20223;-73
2021/12/22 02:26:07;;;;;;;6.32;5.82;;;-0.30;99.90;;;;;;5022158;28;20231;-74
2021/12/22 02:28:37;;;;;;;7.05;5.88;;;-0.40;99.90;;;;;;5021426;28;20223;-73
2021/12/22 02:31:04;;;;;;;5.50;5.15;;;-0.50;99.90;;;;;;5018560;28;20226;-73
2021/12/22 02:33:36;;;;;;;6.43;5.93;;;-0.50;99.90;;;;;;5018237;28;20253;-71
2021/12/22 02:36:19;;;;;;;6.30;5.82;;;-0.50;99.90;;;;;;5022881;28;20227;-72
2021/12/22 02:38:48;;;;;;;6.72;6.13;;;-0.50;99.90;;;;;;5022667;28;20219;-72
2021/12/22 02:41:17;;;;;;;5.60;5.20;;;-0.50;99.90;;;;;;5020710;28;20226;-73
2021/12/22 02:43:47;;;;;;;6.15;5.65;;;-0.60;99.90;;;;;;5021234;28;20242;-72
2021/12/22 02:46:16;;;;;;;5.35;4.95;;;-0.60;99.90;;;;;;5018842;28;20714;-73
2021/12/22 02:48:44;;;;;;;5.78;5.35;;;-0.60;99.90;;;;;;5021778;28;20227;-72
2021/12/22 02:51:12;;;;;;;6.28;5.80;;;-0.50;99.90;;;;;;5020164;28;20231;-73
2021/12/22 02:53:44;;;;;;;5.57;5.18;;;-0.50;99.90;;;;;;5021187;28;20651;-73
2021/12/22 02:59:01;;;;;;;5.82;5.32;;;-0.60;99.90;;;;;;5022789;28;20704;-73
2021/12/22 03:01:53;;;;;;;6.47;5.95;;;-0.60;99.90;;;;;;5026270;28;20681;-73
2021/12/22 03:04:21;;;;;;;6.78;6.18;;;-0.60;99.90;;;;;;5018929;28;20234;-73
2021/12/22 03:06:55;;;;;;;6.60;6.10;;;-0.60;99.90;;;;;;5022970;28;20247;-73
2021/12/22 03:09:25;;;;;;;6.30;5.90;;;-0.50;99.90;;;;;;5019958;28;20685;-73
2021/12/22 03:11:53;;;;;;;7.28;6.78;;;-0.50;99.90;;;;;;5021772;28;20216;-74
2021/12/22 03:14:21;;;;;;;6.53;6.03;;;-0.50;99.90;;;;;;5034084;28;20631;-73
2021/12/22 03:16:49;;;;;;;6.80;6.20;;;-0.50;99.90;;;;;;5023267;28;20328;-73
2021/12/22 03:19:19;;;;;;;6.82;6.32;;;-0.60;99.90;;;;;;5016528;28;20223;-73
2021/12/22 03:21:47;;;;;;;6.65;6.05;;;-0.60;99.90;;;;;;5022505;28;20231;-73
2021/12/22 03:24:19;;;;;;;6.38;5.88;;;-0.60;99.90;;;;;;5026522;28;20707;-73
2021/12/22 03:26:46;;;;;;;6.38;5.88;;;-0.60;99.90;;;;;;5021145;28;20602;-73
2021/12/22 03:29:15;;;;;;;6.32;5.82;;;-0.50;99.90;;;;;;5022396;28;20222;-73
2021/12/22 03:31:43;;;;;;;6.07;5.57;;;-0.60;99.90;;;;;;5023959;28;20309;-73
2021/12/22 03:34:11;;;;;;;6.32;5.82;;;-0.60;99.90;;;;;;5025929;28;20234;-73
2021/12/22 03:36:38;;;;;;;6.70;6.20;;;-0.50;99.90;;;;;;5023816;28;20220;-73
2021/12/22 03:39:06;;;;;;;6.40;5.80;;;-0.60;99.90;;;;;;5024193;28;20326;-73
2021/12/22 03:41:35;;;;;;;6.63;6.03;;;-0.60;99.90;;;;;;5022784;28;20281;-73
2021/12/22 03:44:03;;;;;;;6.38;5.65;;;-0.60;99.90;;;;;;5021259;28;20331;-73
2021/12/22 03:46:30;;;;;;;6.88;6.38;;;-0.60;99.90;;;;;;5021911;28;20650;-73
2021/12/22 03:48:58;;;;;;;7.05;6.45;;;-0.60;99.90;;;;;;5028966;28;20223;-73
2021/12/22 03:51:25;;;;;;;6.47;5.97;;;-0.60;99.90;;;;;;5022623;28;20223;-73
2021/12/22 03:53:52;;;;;;;6.05;5.65;;;-0.60;99.90;;;;;;5019771;28;20246;-74
2021/12/22 03:56:19;;;;;;;7.03;6.38;;;-0.60;99.90;;;;;;4995749;28;20230;-72
2021/12/22 03:58:49;;;;;;;6.85;6.30;;;-0.60;99.90;;;;;;5021206;28;20297;-73
2021/12/22 04:01:16;;;;;;;6.53;5.93;;;-0.70;99.90;;;;;;5023636;28;20223;-73
2021/12/22 04:03:47;;;;;;;5.88;5.38;;;-0.70;99.90;;;;;;5023793;28;20246;-72
2021/12/22 04:06:14;;;;;;;6.57;6.07;;;-0.80;99.90;;;;;;5022842;28;20240;-74
2021/12/22 04:08:41;;;;;;;6.75;6.13;;;-0.80;99.90;;;;;;5039527;28;20289;-73
2021/12/22 04:11:08;;;;;;;7.32;6.68;;;-0.80;99.90;;;;;;5019640;28;20226;-73
2021/12/22 04:13:35;;;;;;;6.97;6.38;;;-0.80;99.90;;;;;;5023478;28;20241;-73
2021/12/22 04:16:03;;;;;;;6.80;6.20;;;-0.80;99.90;;;;;;5020557;28;20737;-73
2021/12/22 04:18:31;;;;;;;7.10;6.50;;;-0.80;99.90;;;;;;5019838;28;20281;-71
2021/12/22 04:20:58;;;;;;;6.28;5.78;;;-0.80;99.90;;;;;;5023386;28;20709;-73
2021/12/22 04:23:25;;;;;;;7.88;7.20;;;-0.70;99.90;;;;;;5026509;28;20281;-73
2021/12/22 04:25:52;;;;;;;7.18;6.55;;;-0.70;99.90;;;;;;5023394;28;20223;-73
2021/12/22 04:28:19;;;;;;;6.90;6.40;;;-0.70;99.90;;;;;;4989163;28;20221;-72
2021/12/22 04:30:49;;;;;;;6.85;6.25;;;-0.70;99.90;;;;;;5026746;28;20227;-72
2021/12/22 04:33:19;;;;;;;6.38;5.88;;;-0.70;99.90;;;;;;5024909;28;20235;-73
2021/12/22 04:35:47;;;;;;;6.80;6.20;;;-0.70;99.90;;;;;;5024647;28;20241;-73
2021/12/22 04:38:14;;;;;;;8.15;7.35;;;-0.70;99.90;;;;;;5022952;28;20390;-72
2021/12/22 04:40:41;;;;;;;8.10;7.40;;;-0.80;99.90;;;;;;5024712;28;20231;-73
2021/12/22 04:43:08;;;;;;;7.70;6.35;;;-0.80;99.90;;;;;;5019875;28;20223;-73
2021/12/22 04:45:35;;;;;;;7.60;6.90;;;-0.80;99.90;;;;;;5023471;28;20239;-72
2021/12/22 04:48:04;;;;;;;6.95;6.45;;;-0.80;99.90;;;;;;5019578;28;20706;-73
2021/12/22 04:50:34;;;;;;;7.65;7.05;;;-0.90;99.90;;;;;;5023697;28;20231;-71
2021/12/22 04:53:06;;;;;;;6.40;5.97;;;-0.90;99.90;;;;;;5023341;28;20310;-73
2021/12/22 04:55:33;;;;;;;5.80;5.28;;;-0.80;99.90;;;;;;5022760;28;20737;-72
2021/12/22 04:58:01;;;;;;;6.68;6.18;;;-0.90;99.90;;;;;;5026103;28;20231;-72
2021/12/22 05:00:30;;;;;;;6.88;6.38;;;-0.90;99.90;;;;;;5021890;28;20309;-73
2021/12/22 05:02:58;;;;;;;6.95;6.05;;;-0.90;99.90;;;;;;5036647;28;20227;-72
2021/12/22 05:05:25;;;;;;;6.57;6.00;;;-0.90;99.90;;;;;;5027449;28;20222;-73
2021/12/22 05:07:54;;;;;;;7.10;6.50;;;-0.90;99.90;;;;;;5028285;28;20226;-73
2021/12/22 05:10:23;;;;;;;8.18;7.20;;;-0.90;99.90;;;;;;5025290;28;20299;-73
2021/12/22 05:12:51;;;;;;;7.03;6.45;;;-1.00;99.90;;;;;;5023119;28;20232;-73
2021/12/22 05:15:20;;;;;;;6.40;5.90;;;-1.00;99.90;;;;;;5020935;28;20343;-72
2021/12/22 05:18:12;;;;;;;6.43;5.82;;;-1.00;99.90;;;;;;5019515;28;20681;-73
2021/12/22 05:20:38;;;;;;;7.00;6.47;;;-1.00;99.90;;;;;;5021912;28;20227;-73
2021/12/22 05:23:07;;;;;;;7.03;6.43;;;-1.00;99.90;;;;;;5021336;28;20215;-73
2021/12/22 05:25:34;;;;;;;7.22;6.70;;;-1.10;99.90;;;;;;5018932;28;20230;-73
2021/12/22 05:28:01;;;;;;;6.85;6.25;;;-1.10;99.90;;;;;;5022068;28;20269;-73
2021/12/22 05:30:28;;;;;;;6.85;6.28;;;-1.10;99.90;;;;;;5022227;28;20268;-73
2021/12/22 05:32:55;;;;;;;6.90;6.30;;;-1.00;99.90;;;;;;5017803;28;20281;-73
2021/12/22 05:35:23;;;;;;;6.68;6.18;;;-1.10;99.90;;;;;;5018406;28;20716;-73
2021/12/22 05:37:50;;;;;;;6.57;6.07;;;-1.10;99.90;;;;;;5026514;28;20417;-73
2021/12/22 05:40:19;;;;;;;6.50;6.03;;;-1.10;99.90;;;;;;5026194;28;20767;-72
2021/12/22 05:42:46;;;;;;;7.05;6.47;;;-1.10;99.90;;;;;;5026605;28;20285;-73
2021/12/22 05:45:13;;;;;;;7.30;6.60;;;-1.10;99.90;;;;;;5026244;28;20942;-73
2021/12/22 05:47:40;;;;;;;7.55;6.88;;;-1.20;99.90;;;;;;5022085;28;20238;-74
2021/12/22 05:50:08;;;;;;;7.35;6.65;;;-1.10;99.90;;;;;;5023476;28;20642;-73
2021/12/22 05:52:35;;;;;;;7.03;6.40;;;-1.20;99.90;;;;;;5021041;28;20228;-73
2021/12/22 05:55:03;;;;;;;6.75;6.15;;;-1.10;99.90;;;;;;5034307;28;20211;-73
2021/12/22 05:57:31;;;;;;;7.28;6.57;;;-1.10;99.90;;;;;;5031905;28;20227;-72
2021/12/22 05:59:58;;;;;;;6.97;6.35;;;-1.10;99.90;;;;;;5020857;28;20238;-74
2021/12/22 06:02:25;;;;;;;6.43;5.93;;;-1.00;99.90;;;;;;5024597;28;20231;-73
2021/12/22 06:04:52;;;;;;;7.07;6.47;;;-1.10;99.90;;;;;;5019990;28;20220;-73
2021/12/22 06:07:19;;;;;;;6.53;6.03;;;-1.10;99.90;;;;;;4996925;28;20234;-73
2021/12/22 06:09:46;;;;;;;6.50;6.00;;;-1.00;99.90;;;;;;5014105;28;20230;-73
2021/12/22 06:12:13;;;;;;;6.30;5.70;;;-1.10;99.90;;;;;;5025872;28;20230;-73
2021/12/22 06:14:42;;;;;;;6.68;6.15;;;-1.10;99.90;;;;;;5018035;28;20219;-73
2021/12/22 06:17:09;;;;;;;5.60;5.20;;;-1.10;99.90;;;;;;5018756;28;20224;-72
2021/12/22 06:19:36;;;;;;;6.72;6.22;;;-1.10;99.90;;;;;;5020995;28;20234;-73
2021/12/22 06:22:04;;;;;;;7.15;6.57;;;-1.10;99.90;;;;;;5022563;28;20227;-73
2021/12/22 06:24:31;;;;;;;6.72;6.32;;;-1.10;99.90;;;;;;5015826;28;20234;-74
2021/12/22 06:26:58;;;;;;;6.78;6.28;;;-1.10;99.90;;;;;;5019680;28;20220;-71
2021/12/22 06:29:26;;;;;;;7.55;6.93;;;-1.10;99.90;;;;;;5014798;28;20913;-73
2021/12/22 06:31:54;;;;;;;8.20;7.40;;;-1.10;99.90;;;;;;5014838;28;20230;-73
2021/12/22 06:34:21;;;;;;;10.65;9.65;;;-1.10;99.90;;;;;;5022160;28;20282;-73
2021/12/22 06:36:49;;;;;;;14.65;12.52;;;-1.10;99.90;;;;;;5020318;28;20717;-73
2021/12/22 06:39:18;;;;;;;13.05;11.57;;;-1.10;99.90;;;;;;5019014;28;20223;-73
2021/12/22 06:41:45;;;;;;;12.48;11.23;;;-1.10;99.90;;;;;;5012062;28;20231;-74
2021/12/22 06:44:12;;;;;;;11.95;10.65;;;-1.10;99.90;;;;;;4973531;22;20232;-77
2021/12/22 06:46:41;;;;;;;13.63;10.30;;;-1.10;99.90;;;;;;5025384;28;20242;-76
2021/12/22 06:49:11;;;;;;;16.45;12.75;;;-1.10;99.90;;;;;;5028341;28;20223;-76
2021/12/22 06:51:38;;;;;;;13.55;12.15;;;-1.10;99.90;;;;;;5036508;28;20701;-77
2021/12/22 06:54:05;;;;;;;11.35;10.25;;;-1.20;99.90;;;;;;5024850;28;20215;-76
2021/12/22 06:56:32;;;;;;;11.77;10.55;;;-1.20;99.90;;;;;;5024067;28;20219;-78
2021/12/22 06:59:01;;;;;;;10.48;9.48;;;-1.20;99.90;;;;;;5013049;28;20244;-78
2021/12/22 07:01:31;;;;;;;10.00;9.05;;;-1.30;99.90;;;;;;5017967;28;20349;-78
2021/12/22 07:03:58;;;;;;;10.40;9.40;;;-1.40;99.90;;;;;;5014372;28;20437;-76
2021/12/22 07:06:27;;;;;;;10.02;9.13;;;-1.40;99.90;;;;;;5015336;28;20223;-78
2021/12/22 07:08:54;;;;;;;10.20;9.30;;;-1.40;99.90;;;;;;5017777;28;20228;-76
2021/12/22 07:11:21;;;;;;;8.88;8.18;;;-1.40;99.90;;;;;;4975283;28;20686;-76
2021/12/22 07:13:48;;;;;;;8.38;7.68;;;-1.40;99.90;;;;;;5018709;28;20661;-77
2021/12/22 07:16:15;;;;;;;8.98;8.23;;;-1.40;99.90;;;;;;5019006;28;20219;-78
2021/12/22 07:18:43;;;;;;;9.00;8.23;;;-1.40;99.90;;;;;;5022780;28;20306;-76
2021/12/22 07:21:10;;;;;;;8.05;7.35;;;-1.40;99.90;;;;;;5015036;28;20693;-75
2021/12/22 07:23:39;;;;;;;8.00;7.30;;;-1.40;99.90;;;;;;5016821;28;20318;-77
2021/12/22 07:26:07;;;;;;;8.15;7.55;;;-1.40;99.90;;;;;;5010752;28;20231;-79
2021/12/22 07:28:34;;;;;;;8.10;7.40;;;-1.40;99.90;;;;;;5012609;28;20273;-76
2021/12/22 07:31:01;;;;;;;8.18;7.47;;;-1.30;99.90;;;;;;5015170;28;20224;-78
2021/12/22 07:33:28;;;;;;;8.70;8.00;;;-1.30;99.90;;;;;;5017607;28;20226;-78
2021/12/22 07:35:59;;;;;;;8.02;7.32;;;-1.40;99.90;;;;;;5016208;28;20219;-78
2021/12/22 07:38:32;;;;;;;9.07;8.27;;;-1.40;99.90;;;;;;5013151;28;20227;-80
2021/12/22 07:41:02;;;;;;;8.73;7.97;;;-1.40;99.90;;;;;;5014399;28;20228;-77
2021/12/22 07:43:31;;;;;;;8.90;8.10;;;-1.40;99.90;;;;;;5014358;28;20273;-76
2021/12/22 07:45:58;;;;;;;8.00;7.20;;;-1.30;99.90;;;;;;5015794;28;20226;-77
2021/12/22 07:48:25;;;;;;;8.38;7.63;;;-1.30;99.90;;;;;;5013451;28;20223;-77
2021/12/22 07:50:52;;;;;;;7.70;7.05;;;-1.30;99.90;;;;;;5010436;28;20278;-76
2021/12/22 07:53:21;;;;;;;7.57;6.93;;;-1.20;99.90;;;;;;4969977;28;20277;-76
2021/12/22 07:55:52;;;;;;;8.02;7.32;;;-1.20;99.90;;;;;;5017713;28;20689;-77
2021/12/22 07:58:21;;;;;;;8.30;7.50;;;-1.20;99.90;;;;;;4973697;28;20231;-76
2021/12/22 08:00:48;;;;;;;7.50;6.90;;;-1.10;99.90;;;;;;4983685;28;20786;-77
2021/12/22 08:03:15;;;;;;;7.05;6.35;;;-1.10;99.90;;;;;;5013570;28;20231;-77
2021/12/22 08:05:42;;;;;;;7.57;6.75;;;-1.10;99.90;;;;;;5016483;28;20655;-76
2021/12/22 08:08:09;;;;;;;6.88;6.28;;;-1.00;99.90;;;;;;5011490;28;20227;-77
2021/12/22 08:10:36;;;;;;;7.35;6.70;;;-1.00;99.90;;;;;;4990821;28;20239;-76
2021/12/22 08:13:04;;;;;;;7.47;6.80;;;-1.00;99.90;;;;;;5011040;28;20224;-77
2021/12/22 08:15:32;;;;;;;7.60;7.00;;;-0.90;99.90;;;;;;5011400;28;20745;-75
2021/12/22 08:17:59;;;;;;;7.85;7.13;;;-0.90;99.90;;;;;;5021380;28;20227;-77
2021/12/22 08:20:27;;;;;;;8.63;7.75;;;-0.50;99.90;;;;;;5010836;28;20575;-77
2021/12/22 08:22:54;;;;;;;8.30;7.60;;;0.40;99.90;;;;;;5016352;28;20226;-77
2021/12/22 08:25:21;;;;;;;8.40;7.70;;;1.30;99.90;;;;;;5009665;28;20709;-77
2021/12/22 08:27:49;;;;;;;7.50;6.80;;;2.10;99.90;;;;;;5012555;28;20231;-75
2021/12/22 08:30:16;;;;;;;8.27;6.90;;;2.90;99.90;;;;;;5016708;28;20235;-77
2021/12/22 08:32:44;;;;;;;8.38;7.53;;;3.40;99.90;;;;;;5017669;28;20235;-77
2021/12/22 08:35:15;;;;;;;8.70;7.60;;;3.90;99.90;;;;;;5015464;28;20313;-78
2021/12/22 08:40:27;;;;;;;8.18;7.45;;;4.80;99.90;;;;;;5013439;28;20223;-77
2021/12/22 08:42:54;;;;;;;9.57;8.68;;;5.40;99.90;;;;;;5024553;28;20222;-77
2021/12/22 08:45:21;;;;;;;9.18;8.10;;;5.90;99.90;;;;;;5019320;28;20231;-78
2021/12/22 08:47:50;;;;;;;8.90;7.93;;;6.30;99.90;;;;;;5014509;28;20227;-78
2021/12/22 08:50:19;;;;;;;9.02;8.23;;;6.60;99.90;;;;;;5014796;28;20235;-76
2021/12/22 08:52:46;;;;;;;9.45;8.52;;;6.90;99.90;;;;;;5011751;28;20643;-77
2021/12/22 08:55:14;;;;;;;9.25;8.35;;;7.30;99.90;;;;;;5017607;28;20310;-77
2021/12/22 08:57:41;;;;;;;8.30;7.50;;;7.70;99.90;;;;;;5011217;28;20223;-77
2021/12/22 09:00:10;;;;;;;8.07;7.25;;;8.20;99.90;;;;;;5013560;28;20407;-75
2021/12/22 09:02:39;;;;;;;8.18;7.40;;;8.70;99.90;;;;;;5011609;28;20235;-76
2021/12/22 09:05:08;;;;;;;7.70;6.95;;;9.20;99.90;;;;;;5020722;28;20229;-77
2021/12/22 09:07:35;;;;;;;7.38;6.68;;;9.60;99.90;;;;;;5013002;28;20238;-76
2021/12/22 09:10:03;;;;;;;8.00;6.70;;;9.70;99.90;;;;;;4986983;28;20682;-77
2021/12/22 09:12:30;;;;;;;9.23;7.20;;;10.50;99.90;;;;;;5013426;28;20270;-77
2021/12/22 09:14:57;;;;;;;7.43;6.72;;;11.50;99.90;;;;;;5013765;28;20790;-77
2021/12/22 09:17:25;;;;;;;10.13;7.95;;;12.80;99.90;;;;;;5012926;28;20273;-78
2021/12/22 09:19:53;;;;;;;9.38;8.20;;;13.90;99.90;;;;;;4995597;28;20227;-78
2021/12/22 09:22:22;;;;;;;9.07;7.90;;;14.60;98.60;;;;;;4992105;28;20653;-78
2021/12/22 09:24:49;;;;;;;9.07;7.68;;;15.50;94.00;;;;;;5018154;28;20723;-77
2021/12/22 09:27:16;;;;;;;9.45;7.15;;;16.10;93.20;;;;;;5013319;28;20227;-79
2021/12/22 09:29:44;;;;;;;8.23;7.38;;;16.80;87.00;;;;;;5019754;28;20219;-77
2021/12/22 09:32:15;;;;;;;7.55;6.40;;;17.00;84.40;;;;;;5015474;28;20250;-76
2021/12/22 09:34:43;;;;;;;7.47;6.63;;;16.90;82.60;;;;;;5010469;28;20710;-75
2021/12/22 09:37:10;;;;;;;7.60;6.80;;;17.10;82.90;;;;;;5012895;28;20216;-75
2021/12/22 09:39:39;;;;;;;9.18;7.03;;;17.30;81.30;;;;;;5016256;28;20231;-76
2021/12/22 09:42:07;;;;;;;7.53;6.72;;;17.10;81.20;;;;;;5011302;28;20239;-76
2021/12/22 09:44:42;;;;;;;7.07;6.10;;;17.30;77.80;;;;;;4988111;28;20231;-76
2021/12/22 09:47:09;;;;;;;7.50;6.80;;;17.50;79.10;;;;;;5007137;28;20223;-76
2021/12/22 09:49:48;;;;;;;7.38;6.68;;;17.80;77.30;;;;;;5011374;28;20238;-76
2021/12/22 09:52:21;;;;;;;7.90;7.10;;;17.80;74.40;;;;;;5013510;28;20226;-75
2021/12/22 09:54:52;;;;;;;9.20;7.60;;;17.70;75.30;;;;;;5009310;28;20333;-76
2021/12/22 09:57:20;;;;;;;7.80;7.10;;;17.50;75.00;;;;;;5006872;28;20227;-74
2021/12/22 09:59:49;;;;;;;9.73;8.27;;;16.90;76.50;;;;;;5006513;28;20246;-75
2021/12/22 10:02:17;;;;;;;8.38;7.50;;;16.00;76.60;;;;;;5014248;28;20223;-77
2021/12/22 10:04:44;;;;;;;14.27;8.13;;;14.80;80.60;;;;;;5009719;28;20502;-76
2021/12/22 10:07:17;;;;;;;8.00;6.85;;;13.60;84.40;;;;;;5016465;28;20247;-76
2021/12/22 10:09:45;;;;;;;8.75;7.72;;;12.40;88.90;;;;;;5011708;28;20235;-75
2021/12/22 10:12:19;;;;;;;9.35;7.90;;;11.60;91.10;;;;;;5013318;28;20253;-76
2021/12/22 10:14:52;;;;;;;10.60;8.15;;;11.10;92.60;;;;;;5008223;28;20690;-77
2021/12/22 10:17:36;;;;;;;9.48;7.70;;;10.90;93.30;;;;;;4991980;28;20602;-76
2021/12/22 10:20:08;;;;;;;9.82;7.78;;;10.60;94.10;;;;;;4991220;28;20224;-76
2021/12/22 10:22:38;;;;;;;12.27;7.80;;;10.30;94.70;;;;;;5005995;28;20232;-76
2021/12/22 10:25:10;;;;;;;7.78;6.97;;;10.10;95.40;;;;;;5015743;28;21309;-77
2021/12/22 10:27:41;;;;;;;10.10;7.78;;;9.90;95.90;;;;;;5016227;28;20239;-76
2021/12/22 10:30:29;;;;;;;10.63;7.55;;;9.60;96.70;;;;;;5012774;28;20223;-76
2021/12/22 10:33:15;;;;;;;9.98;7.25;;;9.60;96.90;;;;;;5017231;28;20219;-75
2021/12/22 10:35:45;;;;;;;8.25;7.45;;;9.70;97.10;;;;;;5013834;28;20231;-75
2021/12/22 10:38:14;;;;;;;8.13;7.30;;;9.90;97.30;;;;;;5016188;28;20227;-78
2021/12/22 10:40:43;;;;;;;8.57;7.78;;;9.90;97.10;;;;;;5020820;28;20465;-78
2021/12/22 10:43:17;;;;;;;8.75;7.45;;;9.90;96.90;;;;;;5015899;28;20235;-78
2021/12/22 10:45:48;;;;;;;9.38;8.10;;;9.90;97.30;;;;;;5017884;28;20266;-76
2021/12/22 10:51:08;;;;;;;8.52;7.60;;;9.40;97.20;;;;;;5014079;28;20250;-77
2021/12/22 10:53:43;;;;;;;7.50;6.82;;;9.40;97.50;;;;;;5019796;28;20237;-75
2021/12/22 10:56:10;;;;;;;9.52;7.90;;;9.50;97.70;;;;;;5017587;28;20227;-76
2021/12/22 10:58:39;;;;;;;9.18;7.90;;;9.30;97.50;;;;;;5011639;28;20224;-76
2021/12/22 11:01:10;;;;;;;8.65;7.25;;;9.10;98.40;;;;;;5012755;28;20223;-76
2021/12/22 11:03:42;;;;;;;9.68;8.68;;;9.30;98.40;;;;;;5018496;28;20215;-78
2021/12/22 11:06:16;;;;;;;11.95;8.52;;;9.20;98.10;;;;;;5017277;28;20227;-77
2021/12/22 11:08:53;;;;;;;10.88;8.52;;;9.40;98.30;;;;;;5014132;28;20231;-75
2021/12/22 11:11:20;;;;;;;9.40;8.50;;;9.60;98.50;;;;;;5017772;28;20211;-77
2021/12/22 11:14:03;;;;;;;10.35;8.52;;;9.70;98.60;;;;;;4988548;28;20228;-77
2021/12/22 11:16:30;;;;;;;12.45;8.68;;;9.60;98.70;;;;;;5014679;28;20285;-80
2021/12/22 11:19:08;;;;;;;10.00;9.00;;;9.60;98.90;;;;;;5001734;28;20227;-77
2021/12/22 11:21:37;;;;;;;10.05;9.02;;;9.70;98.70;;;;;;4999089;28;20243;-78
2021/12/22 11:24:04;;;;;;;9.00;8.10;;;9.80;98.80;;;;;;5018619;28;20287;-79
2021/12/22 11:26:32;;;;;;;10.25;9.30;;;9.50;98.90;;;;;;5025011;28;20223;-79
2021/12/22 11:29:00;;;;;;;11.15;9.85;;;9.50;99.10;;;;;;5027494;28;20238;-78
2021/12/22 11:31:29;;;;;;;9.55;8.63;;;9.40;99.30;;;;;;5025157;28;20227;-80
2021/12/22 11:33:58;;;;;;;10.13;8.55;;;9.50;99.30;;;;;;4990966;28;20574;-80
2021/12/22 11:36:28;;;;;;;12.25;9.30;;;9.60;99.40;;;;;;5029515;28;20243;-79
2021/12/22 11:38:56;;;;;;;9.57;8.38;;;9.80;99.30;;;;;;5006273;28;20269;-80
2021/12/22 11:41:23;;;;;;;10.77;8.60;;;9.60;99.60;;;;;;5018357;28;20224;-78
2021/12/22 11:43:50;;;;;;;8.50;7.68;;;9.50;99.50;;;;;;5027636;28;20235;-80
2021/12/22 11:46:19;;;;;;;10.80;8.82;;;9.40;99.80;;;;;;5022808;28;20223;-79
2021/12/22 11:48:49;;;;;;;11.07;8.23;;;9.40;99.10;;;;;;5015139;28;20232;-78
2021/12/22 11:51:24;;;;;;;12.70;8.70;;;9.40;99.20;;;;;;5019630;28;20659;-78
2021/12/22 11:53:53;;;;;;;12.10;8.75;;;9.30;98.60;;;;;;5022928;28;20227;-78
2021/12/22 11:56:38;;;;;;;9.88;8.38;;;9.20;99.00;;;;;;5016991;28;20228;-77
2021/12/22 11:59:06;;;;;;;9.85;8.85;;;9.30;99.00;;;;;;5015195;28;20658;-79
2021/12/22 12:01:34;;;;;;;9.07;7.45;;;9.20;98.70;;;;;;5021161;28;20235;-78
2021/12/22 12:04:15;;;;;;;9.20;7.82;;;9.20;98.70;;;;;;5016007;28;20234;-78
2021/12/22 12:06:49;;;;;;;8.48;7.65;;;8.90;99.10;;;;;;5014872;28;20218;-78
2021/12/22 12:09:21;;;;;;;7.68;6.97;;;8.70;98.50;;;;;;5017655;28;20219;-78
2021/12/22 12:11:52;;;;;;;9.27;7.78;;;8.80;99.10;;;;;;5019092;28;20223;-77
2021/12/22 12:14:57;;;;;;;8.18;7.38;;;8.90;99.00;;;;;;5020064;28;20687;-78
2021/12/22 12:23:27;;;;;;;12.05;8.48;;;9.00;98.90;;;;;;4955707;28;20244;-79
2021/12/22 12:25:58;;;;;;;10.30;7.40;;;9.10;99.40;;;;;;4958179;28;20287;-76
2021/12/22 12:28:27;;;;;;;8.63;7.82;;;9.00;99.50;;;;;;4991233;28;20245;-78
2021/12/22 12:30:55;;;;;;;7.30;6.60;;;9.00;99.30;;;;;;5016428;28;20238;-78
2021/12/22 12:33:26;;;;;;;8.98;7.35;;;8.90;99.50;;;;;;5015680;28;20578;-78
2021/12/22 12:36:05;;;;;;;7.68;6.90;;;9.00;99.30;;;;;;5010171;28;20231;-76
2021/12/22 12:38:48;;;;;;;9.20;8.30;;;9.00;99.00;;;;;;5017348;28;20219;-76
2021/12/22 12:41:29;;;;;;;8.27;7.38;;;9.00;99.10;;;;;;5008502;28;20728;-78
2021/12/22 12:44:12;;;;;;;9.98;7.38;;;8.80;99.40;;;;;;4987348;23;20221;-72
2021/12/22 12:46:51;;;;;;;8.35;7.55;;;8.70;99.60;;;;;;4993175;28;20223;-74
2021/12/22 12:49:43;;;;;;;8.07;7.25;;;8.80;99.90;;;;;;5014530;28;20227;-73
2021/12/22 12:52:26;;;;;;;7.85;7.05;;;8.90;99.30;;;;;;5007424;28;20315;-72
2021/12/22 12:55:12;;;;;;;8.02;7.22;;;8.80;99.50;;;;;;5006247;28;20231;-74
2021/12/22 12:57:40;;;;;;;7.93;6.85;;;8.80;99.30;;;;;;5009986;28;20418;-77
2021/12/22 13:00:23;;;;;;;7.78;6.95;;;8.90;99.40;;;;;;5011462;28;20228;-74
2021/12/22 13:03:04;;;;;;;10.82;7.65;;;8.90;99.50;;;;;;4983997;28;20322;-75
2021/12/22 13:05:33;;;;;;;8.48;7.25;;;9.00;99.60;;;;;;5004202;28;20222;-71
2021/12/22 13:08:07;;;;;;;7.30;6.55;;;9.00;99.70;;;;;;5005453;28;20868;-72
2021/12/22 13:10:36;;;;;;;8.52;7.50;;;8.80;99.40;;;;;;5006787;28;20591;-73
2021/12/22 13:13:15;;;;;;;9.35;7.50;;;8.40;99.90;;;;;;5014524;28;20227;-72
2021/12/22 13:15:49;;;;;;;9.15;7.90;;;8.30;99.90;;;;;;5006737;28;20234;-74
2021/12/22 13:18:28;;;;;;;9.32;7.72;;;8.20;99.90;;;;;;5010683;28;20298;-73